Time;durP1;ratioP1;P1;durP2;ratioP2;P2;SDS_P1;SDS_P2;PMS_P1;PMS_P2;Temp;Humidity;BMP_temperature;BMP_pressure;BME280_temperature;BME280_humidity;BME280_pressure;Samples;Min_cycle;Max_cycle;Signal;HPM_P1;HPM_P2
2023/05/21 00:03:46;;;;;;;49.40;22.92;;;;;;;;;;8397758;28;20044;-92
2023/05/21 00:07:53;;;;;;;54.38;23.25;;;;;;;;;;8386430;28;20040;-94
2023/05/21 00:11:58;;;;;;;46.30;22.42;;;;;;;;;;8400248;28;20102;-95
2023/05/21 00:16:09;;;;;;;47.40;23.02;;;;;;;;;;8399634;28;20047;-92
2023/05/21 00:20:16;;;;;;;43.15;20.55;;;;;;;;;;8397358;28;20048;-93
2023/05/21 00:24:40;;;;;;;41.30;20.17;;;;;;;;;;8378171;28;20057;-92
2023/05/21 00:28:46;;;;;;;36.75;17.60;;;;;;;;;;8367396;28;20059;-92
2023/05/21 00:32:49;;;;;;;39.03;18.70;;;;;;;;;;8399934;28;20517;-92
2023/05/21 00:36:56;;;;;;;34.63;17.38;;;;;;;;;;8365651;28;20048;-91
2023/05/21 00:41:01;;;;;;;31.08;17.30;;;;;;;;;;8386075;28;20147;-92
2023/05/21 00:45:07;;;;;;;35.28;16.70;;;;;;;;;;8396823;28;20123;-92
2023/05/21 00:49:10;;;;;;;34.60;16.92;;;;;;;;;;8399629;28;20107;-91
2023/05/21 00:53:18;;;;;;;29.65;15.73;;;;;;;;;;8399519;28;20389;-92
2023/05/21 00:57:23;;;;;;;38.78;18.05;;;;;;;;;;8390827;28;20119;-92
2023/05/21 01:01:26;;;;;;;28.60;14.68;;;;;;;;;;8387665;28;20045;-91
2023/05/21 01:05:31;;;;;;;31.50;16.38;;;;;;;;;;8395423;28;20048;-92
2023/05/21 01:09:36;;;;;;;27.70;14.60;;;;;;;;;;8390161;28;20131;-91
2023/05/21 01:13:41;;;;;;;27.55;13.85;;;;;;;;;;8398425;28;20067;-91
2023/05/21 01:17:45;;;;;;;27.27;15.40;;;;;;;;;;8398611;28;20131;-92
2023/05/21 01:21:52;;;;;;;26.75;14.15;;;;;;;;;;8398245;28;20047;-91
2023/05/21 01:25:56;;;;;;;23.20;13.90;;;;;;;;;;8385142;28;20116;-91
2023/05/21 01:30:00;;;;;;;26.50;13.82;;;;;;;;;;8372246;28;20139;-91
2023/05/21 01:34:09;;;;;;;18.83;11.55;;;;;;;;;;8385717;28;20517;-91
2023/05/21 01:38:17;;;;;;;23.35;11.88;;;;;;;;;;8386298;28;20449;-92
2023/05/21 01:42:23;;;;;;;21.95;12.57;;;;;;;;;;8369386;28;20120;-91
2023/05/21 01:46:29;;;;;;;18.40;11.35;;;;;;;;;;8387064;28;20434;-91
2023/05/21 01:50:38;;;;;;;18.65;9.77;;;;;;;;;;8370879;28;20040;-91
2023/05/21 01:54:48;;;;;;;16.02;10.38;;;;;;;;;;8397254;28;20119;-92
2023/05/21 01:58:52;;;;;;;15.52;9.68;;;;;;;;;;8365661;28;20040;-92
2023/05/21 02:02:55;;;;;;;17.80;11.48;;;;;;;;;;8397130;28;20048;-92
2023/05/21 02:07:01;;;;;;;20.13;11.90;;;;;;;;;;8389346;28;20047;-92
2023/05/21 02:11:04;;;;;;;21.48;11.35;;;;;;;;;;8392016;28;20656;-93
2023/05/21 02:15:09;;;;;;;20.52;10.48;;;;;;;;;;8399191;28;20127;-92
2023/05/21 02:19:12;;;;;;;20.00;11.48;;;;;;;;;;8397957;28;20055;-92
2023/05/21 02:23:16;;;;;;;21.52;12.90;;;;;;;;;;8341965;28;20526;-92
2023/05/21 02:27:19;;;;;;;21.65;12.30;;;;;;;;;;8392284;28;20045;-92
2023/05/21 02:31:24;;;;;;;23.02;12.18;;;;;;;;;;8398572;28;20045;-92
2023/05/21 02:35:27;;;;;;;19.95;11.40;;;;;;;;;;8385914;28;20054;-92
2023/05/21 02:39:30;;;;;;;25.33;11.52;;;;;;;;;;8388196;28;20450;-92
2023/05/21 02:43:33;;;;;;;19.58;11.13;;;;;;;;;;8370862;28;20052;-92
2023/05/21 02:47:38;;;;;;;21.98;10.52;;;;;;;;;;8399222;28;20174;-93
2023/05/21 02:51:42;;;;;;;17.73;10.80;;;;;;;;;;8390515;28;20124;-93
2023/05/21 02:55:45;;;;;;;21.83;10.80;;;;;;;;;;8367992;28;20040;-93
2023/05/21 02:59:48;;;;;;;20.10;10.43;;;;;;;;;;8390382;28;20076;-91
2023/05/21 03:03:52;;;;;;;28.52;12.48;;;;;;;;;;8373987;28;20048;-92
2023/05/21 03:07:56;;;;;;;26.27;12.77;;;;;;;;;;8398302;28;20110;-93
2023/05/21 03:11:59;;;;;;;22.15;10.73;;;;;;;;;;8380921;28;20069;-91
2023/05/21 03:16:02;;;;;;;21.70;10.95;;;;;;;;;;8396986;28;20127;-91
2023/05/21 03:20:14;;;;;;;14.05;9.05;;;;;;;;;;8397469;28;20119;-91
2023/05/21 03:24:18;;;;;;;12.45;8.20;;;;;;;;;;8381811;28;20380;-91
2023/05/21 03:28:21;;;;;;;12.10;7.80;;;;;;;;;;8397975;28;20049;-91
2023/05/21 03:32:24;;;;;;;11.02;6.13;;;;;;;;;;8380788;28;20443;-92
2023/05/21 03:36:28;;;;;;;12.35;8.48;;;;;;;;;;8403407;28;20502;-91
2023/05/21 03:40:31;;;;;;;18.75;12.93;;;;;;;;;;8389766;28;20072;-92
2023/05/21 03:44:35;;;;;;;21.33;12.68;;;;;;;;;;8403040;28;20068;-92
2023/05/21 03:48:38;;;;;;;12.48;7.88;;;;;;;;;;8376898;28;20123;-92
2023/05/21 03:52:43;;;;;;;11.10;7.55;;;;;;;;;;8402714;28;20428;-92
2023/05/21 03:56:45;;;;;;;10.90;5.70;;;;;;;;;;8376207;28;20045;-92
2023/05/21 04:00:48;;;;;;;9.27;5.90;;;;;;;;;;8381332;28;20047;-92
2023/05/21 04:04:52;;;;;;;9.95;6.47;;;;;;;;;;8401737;28;20040;-92
2023/05/21 04:08:57;;;;;;;7.35;5.15;;;;;;;;;;8390819;28;20041;-91
2023/05/21 04:13:00;;;;;;;7.60;4.65;;;;;;;;;;8396012;28;20052;-92
2023/05/21 04:17:04;;;;;;;13.23;7.68;;;;;;;;;;8401387;28;20056;-92
2023/05/21 04:21:08;;;;;;;20.42;12.88;;;;;;;;;;8395625;28;20052;-92
2023/05/21 04:25:15;;;;;;;15.45;9.20;;;;;;;;;;8399983;28;20044;-93
2023/05/21 04:29:20;;;;;;;10.70;6.15;;;;;;;;;;8401460;28;20553;-93
2023/05/21 04:33:24;;;;;;;10.93;5.90;;;;;;;;;;8394784;28;20612;-93
2023/05/21 04:37:27;;;;;;;7.47;4.68;;;;;;;;;;8389237;28;20047;-93
2023/05/21 04:41:33;;;;;;;9.85;4.45;;;;;;;;;;8388403;28;20053;-93
2023/05/21 04:45:36;;;;;;;7.57;4.10;;;;;;;;;;8370134;28;20139;-93
2023/05/21 04:49:40;;;;;;;6.72;3.67;;;;;;;;;;8401026;28;20078;-93
2023/05/21 04:53:46;;;;;;;7.50;3.50;;;;;;;;;;8399442;28;20123;-94
2023/05/21 04:57:51;;;;;;;6.82;3.47;;;;;;;;;;8381679;28;20049;-94
2023/05/21 05:01:54;;;;;;;7.38;3.13;;;;;;;;;;8397107;28;20091;-94
2023/05/21 05:05:57;;;;;;;6.43;3.05;;;;;;;;;;8379155;28;20481;-93
2023/05/21 05:10:00;;;;;;;7.90;3.50;;;;;;;;;;8380749;28;20055;-94
2023/05/21 05:14:05;;;;;;;4.97;2.95;;;;;;;;;;8371681;28;20464;-94
2023/05/21 05:18:11;;;;;;;5.30;3.05;;;;;;;;;;8366318;28;20135;-94
2023/05/21 05:22:14;;;;;;;4.30;2.90;;;;;;;;;;8388194;28;20048;-93
2023/05/21 05:26:17;;;;;;;5.95;3.33;;;;;;;;;;8386081;28;20153;-93
2023/05/21 05:30:22;;;;;;;4.25;2.95;;;;;;;;;;8414967;28;20028;-93
2023/05/21 05:34:29;;;;;;;5.70;3.00;;;;;;;;;;8397419;28;20040;-94
2023/05/21 05:38:32;;;;;;;9.13;3.15;;;;;;;;;;8388685;28;20059;-94
2023/05/21 05:42:41;;;;;;;6.32;3.10;;;;;;;;;;8399893;28;20041;-92
2023/05/21 05:46:45;;;;;;;4.55;2.80;;;;;;;;;;8389342;28;20110;-94
2023/05/21 05:50:53;;;;;;;6.22;2.72;;;;;;;;;;8381045;28;20049;-94
2023/05/21 05:54:58;;;;;;;11.00;5.70;;;;;;;;;;8382835;28;20047;-93
2023/05/21 05:59:07;;;;;;;6.25;2.75;;;;;;;;;;8369861;28;20204;-94
2023/05/21 06:03:13;;;;;;;5.72;3.33;;;;;;;;;;8398777;28;20044;-93
2023/05/21 06:07:17;;;;;;;5.63;3.67;;;;;;;;;;8383271;28;20056;-94
2023/05/21 06:11:24;;;;;;;3.88;2.42;;;;;;;;;;8373458;28;20036;-93
2023/05/21 06:15:42;;;;;;;4.43;2.70;;;;;;;;;;8356075;28;20056;-95
2023/05/21 06:19:49;;;;;;;6.97;3.00;;;;;;;;;;8393944;28;20048;-92
2023/05/21 06:23:52;;;;;;;4.95;2.75;;;;;;;;;;8398766;28;20098;-91
2023/05/21 06:27:56;;;;;;;5.00;2.78;;;;;;;;;;8397902;28;20382;-91
2023/05/21 06:32:00;;;;;;;4.78;2.55;;;;;;;;;;8400008;28;20041;-91
2023/05/21 06:36:06;;;;;;;3.22;2.30;;;;;;;;;;8401903;28;20503;-91
2023/05/21 06:40:10;;;;;;;5.72;2.50;;;;;;;;;;8402298;28;20472;-91
2023/05/21 06:44:14;;;;;;;3.58;2.42;;;;;;;;;;8397035;28;20046;-90
2023/05/21 06:48:17;;;;;;;4.13;1.98;;;;;;;;;;8398919;28;20048;-91
2023/05/21 06:52:21;;;;;;;5.22;2.50;;;;;;;;;;8401298;28;20063;-91
2023/05/21 06:56:25;;;;;;;4.97;2.50;;;;;;;;;;8397692;28;20119;-92
2023/05/21 07:00:29;;;;;;;4.60;2.40;;;;;;;;;;8399439;28;20040;-93
2023/05/21 07:04:34;;;;;;;7.65;2.85;;;;;;;;;;8405475;28;20105;-91
2023/05/21 07:08:38;;;;;;;5.57;2.80;;;;;;;;;;8403584;28;20045;-93
2023/05/21 07:12:41;;;;;;;8.02;4.75;;;;;;;;;;8395212;28;20114;-94
2023/05/21 07:16:44;;;;;;;6.00;2.55;;;;;;;;;;8379600;28;20164;-91
2023/05/21 07:20:47;;;;;;;8.65;6.05;;;;;;;;;;8396296;28;20041;-91
2023/05/21 07:24:52;;;;;;;7.13;3.58;;;;;;;;;;8402897;28;20121;-90
2023/05/21 07:28:59;;;;;;;7.00;3.38;;;;;;;;;;8393261;28;20098;-93
2023/05/21 07:33:07;;;;;;;6.45;2.33;;;;;;;;;;8403904;28;20060;-91
2023/05/21 07:37:12;;;;;;;4.55;2.30;;;;;;;;;;8387957;28;20056;-91
2023/05/21 07:41:17;;;;;;;7.03;2.33;;;;;;;;;;8378734;28;20178;-93
2023/05/21 07:45:21;;;;;;;5.65;2.50;;;;;;;;;;8393902;28;20207;-91
2023/05/21 07:49:24;;;;;;;5.43;2.30;;;;;;;;;;8396613;28;20040;-92
2023/05/21 07:53:27;;;;;;;7.82;2.13;;;;;;;;;;8385503;28;20099;-93
2023/05/21 08:02:58;;;;;;;4.28;2.10;;;;;;;;;;8398363;28;20068;-96
2023/05/21 08:07:08;;;;;;;5.53;2.13;;;;;;;;;;8406743;28;20049;-96
2023/05/21 08:11:12;;;;;;;4.63;2.42;;;;;;;;;;8400036;28;20064;-95
2023/05/21 08:15:17;;;;;;;4.65;2.10;;;;;;;;;;8364238;28;20096;-94
2023/05/21 08:19:26;;;;;;;5.93;2.15;;;;;;;;;;8408367;28;20092;-94
2023/05/21 08:23:34;;;;;;;6.18;2.33;;;;;;;;;;8390017;28;20049;-94
2023/05/21 08:27:51;;;;;;;5.10;1.85;;;;;;;;;;8390762;28;20074;-95
2023/05/21 08:31:58;;;;;;;2.28;1.88;;;;;;;;;;8394958;28;20045;-94
2023/05/21 08:36:06;;;;;;;4.50;2.33;;;;;;;;;;8374007;28;20045;-94
2023/05/21 08:40:14;;;;;;;6.03;2.47;;;;;;;;;;8361334;28;20056;-95
2023/05/21 08:49:49;;;;;;;3.92;2.13;;;;;;;;;;8391077;28;20071;-94
2023/05/21 08:53:57;;;;;;;3.22;2.10;;;;;;;;;;8353342;28;20052;-93
2023/05/21 08:58:06;;;;;;;4.05;2.10;;;;;;;;;;8360964;28;20045;-93
2023/05/21 09:02:11;;;;;;;5.35;2.10;;;;;;;;;;8415958;28;20044;-92
2023/05/21 09:11:24;;;;;;;6.35;2.80;;;;;;;;;;8287715;28;20088;-92
2023/05/21 09:15:31;;;;;;;4.88;2.40;;;;;;;;;;8224175;28;20058;-93
2023/05/21 09:19:34;;;;;;;4.18;2.35;;;;;;;;;;8224136;28;20435;-94
2023/05/21 09:23:37;;;;;;;10.50;2.55;;;;;;;;;;8251466;28;20426;-94
2023/05/21 09:27:45;;;;;;;6.53;2.22;;;;;;;;;;8239140;28;20517;-94
2023/05/21 09:32:06;;;;;;;5.95;2.50;;;;;;;;;;8261267;28;20116;-93
2023/05/21 09:36:09;;;;;;;3.67;2.40;;;;;;;;;;8243694;28;20816;-94
2023/05/21 09:40:18;;;;;;;4.50;1.98;;;;;;;;;;8255905;28;20058;-94
2023/05/21 09:44:22;;;;;;;5.82;2.42;;;;;;;;;;8247428;28;20415;-93
2023/05/21 09:48:36;;;;;;;3.85;2.10;;;;;;;;;;8245752;28;20129;-94
2023/05/21 09:52:39;;;;;;;5.43;2.28;;;;;;;;;;8260463;28;20046;-93
2023/05/21 10:02:15;;;;;;;5.13;2.35;;;;;;;;;;8272900;28;20177;-96
2023/05/21 10:06:19;;;;;;;5.75;2.78;;;;;;;;;;8265991;28;20065;-95
2023/05/21 10:10:24;;;;;;;5.55;2.70;;;;;;;;;;8263684;28;20049;-92
2023/05/21 10:14:31;;;;;;;4.55;2.67;;;;;;;;;;8264378;28;20146;-93
2023/05/21 10:18:40;;;;;;;3.92;2.38;;;;;;;;;;8271054;28;20050;-94
2023/05/21 10:22:45;;;;;;;7.43;2.90;;;;;;;;;;8255068;28;20043;-92
2023/05/21 10:26:49;;;;;;;5.68;2.70;;;;;;;;;;8266865;28;20042;-92
2023/05/21 10:30:56;;;;;;;6.60;2.90;;;;;;;;;;8264455;28;20058;-90
2023/05/21 10:35:01;;;;;;;4.15;2.63;;;;;;;;;;8261335;28;20070;-90
2023/05/21 10:39:06;;;;;;;5.00;2.72;;;;;;;;;;8261995;28;20053;-91
2023/05/21 10:43:33;;;;;;;4.53;2.72;;;;;;;;;;8253336;28;20042;-91
2023/05/21 10:47:58;;;;;;;4.50;2.50;;;;;;;;;;8357214;28;20102;-91
2023/05/21 10:52:14;;;;;;;5.40;2.60;;;;;;;;;;8361665;28;20132;-91
2023/05/21 10:56:23;;;;;;;3.65;2.47;;;;;;;;;;8355659;28;20045;-90
2023/05/21 11:00:30;;;;;;;5.05;2.65;;;;;;;;;;8362267;28;20041;-91
2023/05/21 11:04:38;;;;;;;6.68;2.85;;;;;;;;;;8351835;28;20140;-90
2023/05/21 11:08:48;;;;;;;4.93;2.75;;;;;;;;;;8335760;28;20480;-91
2023/05/21 11:13:09;;;;;;;5.30;2.63;;;;;;;;;;8373824;28;20061;-91
2023/05/21 11:17:13;;;;;;;4.35;2.60;;;;;;;;;;8396248;28;20053;-92
2023/05/21 11:21:18;;;;;;;5.22;3.15;;;;;;;;;;8395997;28;20046;-91
2023/05/21 11:25:22;;;;;;;6.38;3.00;;;;;;;;;;8382049;28;20056;-93
2023/05/21 11:29:39;;;;;;;4.80;2.85;;;;;;;;;;8395243;28;20040;-91
2023/05/21 11:33:42;;;;;;;4.10;2.58;;;;;;;;;;8396052;28;20040;-92
2023/05/21 11:37:53;;;;;;;6.45;2.95;;;;;;;;;;8392928;28;20117;-93
2023/05/21 11:41:59;;;;;;;;;;;;;;;;;;8389667;28;20059;-93
2023/05/21 11:46:03;;;;;;;4.13;2.70;;;;;;;;;;8397978;28;19921;-92
2023/05/21 11:50:12;;;;;;;5.15;2.63;;;;;;;;;;8399693;28;20079;-91
2023/05/21 11:54:16;;;;;;;6.20;2.83;;;;;;;;;;8387176;28;20049;-92
2023/05/21 11:58:21;;;;;;;5.65;2.90;;;;;;;;;;8400984;28;20041;-92
2023/05/21 12:02:25;;;;;;;4.68;2.63;;;;;;;;;;8395685;28;20083;-92
2023/05/21 12:06:30;;;;;;;4.32;2.88;;;;;;;;;;8380767;28;20104;-93
2023/05/21 12:10:39;;;;;;;4.30;2.58;;;;;;;;;;8404029;28;20048;-92
2023/05/21 12:14:46;;;;;;;4.82;3.03;;;;;;;;;;8404578;28;20056;-92
2023/05/21 12:18:51;;;;;;;3.83;2.55;;;;;;;;;;8407520;28;20048;-93
2023/05/21 12:22:54;;;;;;;5.60;2.50;;;;;;;;;;8403443;28;20043;-94
2023/05/21 12:26:59;;;;;;;3.72;2.55;;;;;;;;;;8390940;28;20040;-92
2023/05/21 12:31:04;;;;;;;8.55;2.45;;;;;;;;;;8401647;28;20041;-91
2023/05/21 12:35:08;;;;;;;3.13;2.00;;;;;;;;;;8402446;28;20044;-91
2023/05/21 12:39:12;;;;;;;5.35;2.70;;;;;;;;;;8410825;28;20028;-93
2023/05/21 12:43:19;;;;;;;3.30;2.10;;;;;;;;;;8397716;28;20051;-95
2023/05/21 12:47:26;;;;;;;4.03;2.15;;;;;;;;;;8390499;28;20125;-94
2023/05/21 12:51:46;;;;;;;3.90;2.53;;;;;;;;;;8384657;28;20051;-93
2023/05/21 12:55:55;;;;;;;2.88;2.10;;;;;;;;;;8389734;28;20048;-94
2023/05/21 13:00:00;;;;;;;3.42;2.10;;;;;;;;;;8383826;28;20056;-93
2023/05/21 13:04:10;;;;;;;3.20;2.05;;;;;;;;;;8365279;28;20485;-94
2023/05/21 13:08:15;;;;;;;6.45;2.17;;;;;;;;;;8384824;28;20056;-94
2023/05/21 13:12:21;;;;;;;5.10;2.72;;;;;;;;;;8389203;28;20072;-94
2023/05/21 13:16:26;;;;;;;6.10;2.28;;;;;;;;;;8401744;28;20044;-96
2023/05/21 13:20:32;;;;;;;4.18;2.00;;;;;;;;;;8359680;22;20052;-94
2023/05/21 13:24:38;;;;;;;4.70;1.95;;;;;;;;;;8382831;28;20042;-93
2023/05/21 13:28:41;;;;;;;3.85;1.98;;;;;;;;;;8386668;28;20098;-93
2023/05/21 13:32:45;;;;;;;3.97;2.22;;;;;;;;;;8386494;28;20082;-95
2023/05/21 13:36:52;;;;;;;5.95;2.20;;;;;;;;;;8386518;28;20051;-94
2023/05/21 13:45:33;;;;;;;4.55;1.80;;;;;;;;;;8370690;28;20045;-94
2023/05/21 13:49:36;;;;;;;8.43;2.28;;;;;;;;;;8379569;28;20538;-93
2023/05/21 13:53:41;;;;;;;2.92;1.83;;;;;;;;;;8380077;28;20072;-94
2023/05/21 13:57:46;;;;;;;4.25;2.08;;;;;;;;;;8368981;28;20047;-95
2023/05/21 14:01:51;;;;;;;2.63;2.03;;;;;;;;;;8393207;28;20537;-93
2023/05/21 14:06:18;;;;;;;5.35;2.15;;;;;;;;;;8371971;28;20045;-94
2023/05/21 14:10:24;;;;;;;4.30;2.00;;;;;;;;;;8332166;28;20055;-93
2023/05/21 14:14:29;;;;;;;4.35;2.08;;;;;;;;;;8367662;28;20125;-94
2023/05/21 14:18:31;;;;;;;4.53;2.15;;;;;;;;;;8360388;28;20123;-92
2023/05/21 14:22:34;;;;;;;3.50;2.13;;;;;;;;;;8358311;28;20075;-96
2023/05/21 14:26:41;;;;;;;4.38;2.00;;;;;;;;;;8349552;28;20071;-91
2023/05/21 14:30:43;;;;;;;3.15;2.00;;;;;;;;;;8358961;28;20086;-94
2023/05/21 14:34:46;;;;;;;4.22;2.10;;;;;;;;;;8359410;28;20104;-91
2023/05/21 14:38:50;;;;;;;3.70;2.20;;;;;;;;;;8358678;28;20051;-91
2023/05/21 14:43:01;;;;;;;6.68;2.75;;;;;;;;;;8338341;28;20112;-91
2023/05/21 14:47:25;;;;;;;4.60;2.15;;;;;;;;;;8345045;28;20057;-92
2023/05/21 14:51:28;;;;;;;4.60;2.60;;;;;;;;;;8362197;28;20053;-92
2023/05/21 14:55:32;;;;;;;4.38;2.40;;;;;;;;;;8351607;28;20548;-92
2023/05/21 14:59:36;;;;;;;7.13;2.50;;;;;;;;;;8362943;28;20057;-91
2023/05/21 15:03:39;;;;;;;4.85;2.28;;;;;;;;;;8320177;28;20461;-92
2023/05/21 15:07:42;;;;;;;3.70;2.15;;;;;;;;;;8357318;28;20104;-92
2023/05/21 15:11:45;;;;;;;4.65;2.35;;;;;;;;;;8363256;28;20094;-92
2023/05/21 15:15:49;;;;;;;3.55;2.00;;;;;;;;;;8366429;28;20049;-93
2023/05/21 15:19:52;;;;;;;4.78;2.50;;;;;;;;;;8360274;28;20049;-93
2023/05/21 15:23:55;;;;;;;4.43;2.17;;;;;;;;;;8349518;28;20120;-93
2023/05/21 15:27:58;;;;;;;6.82;2.30;;;;;;;;;;8367831;28;20369;-92
2023/05/21 15:32:04;;;;;;;3.20;2.10;;;;;;;;;;8371448;28;20123;-92
2023/05/21 15:36:08;;;;;;;8.10;2.40;;;;;;;;;;8371281;28;20076;-93
2023/05/21 15:40:13;;;;;;;3.63;2.38;;;;;;;;;;8357697;28;20492;-92
2023/05/21 15:44:17;;;;;;;7.13;2.70;;;;;;;;;;8359781;28;20061;-93
2023/05/21 15:48:21;;;;;;;3.40;2.20;;;;;;;;;;8343694;28;20543;-93
2023/05/21 15:52:26;;;;;;;4.68;2.67;;;;;;;;;;8364425;28;20143;-93
2023/05/21 15:56:29;;;;;;;4.65;2.70;;;;;;;;;;8316679;28;20436;-93
2023/05/21 16:00:31;;;;;;;4.90;2.55;;;;;;;;;;8369995;28;20558;-92
2023/05/21 16:04:38;;;;;;;5.65;2.63;;;;;;;;;;8356939;28;20049;-91
2023/05/21 16:08:41;;;;;;;7.78;2.90;;;;;;;;;;8330926;28;20120;-91
2023/05/21 16:12:44;;;;;;;4.45;2.63;;;;;;;;;;8332606;28;20076;-91
2023/05/21 16:16:47;;;;;;;5.95;2.92;;;;;;;;;;8336289;28;20125;-93
2023/05/21 16:20:51;;;;;;;5.40;2.90;;;;;;;;;;8329105;28;20472;-92
2023/05/21 16:24:55;;;;;;;5.90;2.40;;;;;;;;;;8367282;28;20055;-91
2023/05/21 16:28:59;;;;;;;5.70;2.63;;;;;;;;;;8340100;28;20056;-92
2023/05/21 16:33:03;;;;;;;4.15;2.08;;;;;;;;;;8353948;28;20077;-92
2023/05/21 16:37:09;;;;;;;4.20;2.72;;;;;;;;;;8336927;28;20056;-93
2023/05/21 16:41:12;;;;;;;7.32;2.55;;;;;;;;;;8338060;28;20373;-93
2023/05/21 16:45:20;;;;;;;3.58;2.55;;;;;;;;;;8326073;28;20062;-96
2023/05/21 16:49:27;;;;;;;7.05;2.72;;;;;;;;;;8350251;28;20045;-93
2023/05/21 16:53:46;;;;;;;5.03;2.60;;;;;;;;;;8338254;28;20416;-92
2023/05/21 16:57:58;;;;;;;3.95;2.60;;;;;;;;;;8323944;28;20409;-92
2023/05/21 17:02:02;;;;;;;6.90;2.33;;;;;;;;;;8331015;28;20050;-93
2023/05/21 17:06:05;;;;;;;5.13;2.58;;;;;;;;;;8338481;28;20417;-93
2023/05/21 17:10:12;;;;;;;5.63;2.20;;;;;;;;;;8325757;28;20054;-92
2023/05/21 17:14:17;;;;;;;5.30;3.28;;;;;;;;;;8334077;28;20045;-92
2023/05/21 17:18:23;;;;;;;11.50;6.50;;;;;;;;;;8301945;28;20411;-93
2023/05/21 17:22:27;;;;;;;23.67;8.18;;;;;;;;;;8328267;28;20069;-92
2023/05/21 17:26:31;;;;;;;16.00;6.05;;;;;;;;;;8334667;28;20494;-91
2023/05/21 17:30:35;;;;;;;10.18;3.75;;;;;;;;;;8356851;28;20033;-91
2023/05/21 17:34:38;;;;;;;30.48;10.60;;;;;;;;;;8349389;28;20045;-93
2023/05/21 17:38:42;;;;;;;51.20;14.13;;;;;;;;;;8371197;28;20350;-91
2023/05/21 17:43:03;;;;;;;25.13;8.07;;;;;;;;;;8374881;28;20044;-92
2023/05/21 17:47:08;;;;;;;16.10;8.83;;;;;;;;;;8362231;28;20045;-92
2023/05/21 17:51:12;;;;;;;15.27;8.63;;;;;;;;;;8344029;28;20049;-92
2023/05/21 17:55:15;;;;;;;23.70;12.55;;;;;;;;;;8369963;28;20052;-91
2023/05/21 17:59:22;;;;;;;47.70;21.83;;;;;;;;;;8322710;28;20053;-91
2023/05/21 18:03:25;;;;;;;8.73;4.10;;;;;;;;;;8369554;28;20047;-92
2023/05/21 18:07:28;;;;;;;9.48;5.03;;;;;;;;;;8350430;28;20056;-91
2023/05/21 18:11:31;;;;;;;10.45;6.20;;;;;;;;;;8342255;28;20049;-92
2023/05/21 18:15:36;;;;;;;7.65;4.13;;;;;;;;;;8344240;28;20045;-91
2023/05/21 18:19:39;;;;;;;5.38;3.05;;;;;;;;;;8368199;28;20408;-91
2023/05/21 18:23:43;;;;;;;7.45;3.75;;;;;;;;;;8336322;28;20041;-91
2023/05/21 18:27:46;;;;;;;5.70;3.00;;;;;;;;;;8349490;28;20058;-91
2023/05/21 18:31:55;;;;;;;4.55;2.78;;;;;;;;;;8332777;28;20113;-94
2023/05/21 18:35:58;;;;;;;6.10;3.13;;;;;;;;;;8354626;28;20045;-92
2023/05/21 18:40:04;;;;;;;7.25;3.00;;;;;;;;;;8347099;28;20107;-91
2023/05/21 18:44:10;;;;;;;4.57;3.03;;;;;;;;;;8315872;28;20042;-92
2023/05/21 18:48:17;;;;;;;7.15;3.45;;;;;;;;;;8341397;28;20041;-92
2023/05/21 18:52:20;;;;;;;6.32;3.50;;;;;;;;;;8346689;28;20123;-93
2023/05/21 18:56:23;;;;;;;10.80;4.43;;;;;;;;;;8342057;28;20496;-90
2023/05/21 19:00:26;;;;;;;6.15;3.78;;;;;;;;;;8348489;28;20045;-91
2023/05/21 19:04:31;;;;;;;8.45;3.97;;;;;;;;;;8329683;28;20057;-91
2023/05/21 19:08:35;;;;;;;7.15;3.97;;;;;;;;;;8341463;28;20041;-88
2023/05/21 19:12:41;;;;;;;7.50;3.80;;;;;;;;;;8337811;28;20051;-92
2023/05/21 19:16:44;;;;;;;6.18;3.58;;;;;;;;;;8338095;28;20045;-90
2023/05/21 19:20:48;;;;;;;7.25;3.40;;;;;;;;;;8359610;28;20057;-93
2023/05/21 19:24:52;;;;;;;8.32;3.70;;;;;;;;;;8365774;28;20053;-93
2023/05/21 19:28:55;;;;;;;6.40;3.55;;;;;;;;;;8352929;28;20045;-94
2023/05/21 19:32:58;;;;;;;5.40;3.72;;;;;;;;;;8352287;28;20447;-92
2023/05/21 19:37:03;;;;;;;5.65;3.85;;;;;;;;;;8364293;28;20049;-91
2023/05/21 19:41:06;;;;;;;6.93;4.03;;;;;;;;;;8355100;28;20041;-92
2023/05/21 19:45:12;;;;;;;9.25;4.97;;;;;;;;;;8371063;28;20055;-94
2023/05/21 19:49:15;;;;;;;19.67;10.95;;;;;;;;;;8375049;28;20123;-93
2023/05/21 19:53:19;;;;;;;16.63;9.65;;;;;;;;;;8373484;28;20068;-92
2023/05/21 19:57:23;;;;;;;13.40;8.68;;;;;;;;;;8370379;28;20086;-91
2023/05/21 20:01:27;;;;;;;18.85;11.25;;;;;;;;;;8371033;28;20053;-93
2023/05/21 20:05:31;;;;;;;13.98;9.07;;;;;;;;;;8366989;28;20090;-91
2023/05/21 20:09:35;;;;;;;14.05;7.93;;;;;;;;;;8348763;28;20053;-93
2023/05/21 20:13:38;;;;;;;13.13;6.95;;;;;;;;;;8356684;28;20076;-91
2023/05/21 20:17:43;;;;;;;13.90;6.05;;;;;;;;;;8371509;28;20041;-94
2023/05/21 20:21:46;;;;;;;12.10;5.57;;;;;;;;;;8370604;28;20132;-94
2023/05/21 20:25:51;;;;;;;8.98;4.97;;;;;;;;;;8368995;28;20188;-92
2023/05/21 20:29:53;;;;;;;8.50;4.50;;;;;;;;;;8368156;28;20047;-91
2023/05/21 20:33:57;;;;;;;6.50;4.38;;;;;;;;;;8355048;28;20409;-90
2023/05/21 20:38:00;;;;;;;7.82;4.53;;;;;;;;;;8354102;28;20073;-91
2023/05/21 20:42:09;;;;;;;9.93;4.97;;;;;;;;;;8367381;28;20040;-91
2023/05/21 20:46:12;;;;;;;7.25;4.80;;;;;;;;;;8357569;28;20378;-93
2023/05/21 20:50:16;;;;;;;9.52;5.22;;;;;;;;;;8361233;28;20056;-91
2023/05/21 20:54:20;;;;;;;11.98;5.85;;;;;;;;;;8360456;28;20047;-92
2023/05/21 20:58:25;;;;;;;10.15;5.25;;;;;;;;;;8361872;28;20045;-92
2023/05/21 21:02:28;;;;;;;11.90;4.82;;;;;;;;;;8366200;28;20044;-92
2023/05/21 21:06:31;;;;;;;8.40;5.45;;;;;;;;;;8366431;28;20045;-91
2023/05/21 21:10:34;;;;;;;7.72;4.72;;;;;;;;;;8366664;28;20072;-90
2023/05/21 21:14:38;;;;;;;8.25;4.53;;;;;;;;;;8365220;28;20048;-90
2023/05/21 21:18:41;;;;;;;8.77;5.60;;;;;;;;;;8365410;28;20041;-89
2023/05/21 21:22:44;;;;;;;6.93;4.53;;;;;;;;;;8365064;28;20055;-89
2023/05/21 21:26:47;;;;;;;7.30;4.90;;;;;;;;;;8365564;28;20045;-92
2023/05/21 21:30:51;;;;;;;11.18;4.53;;;;;;;;;;8366800;28;20485;-92
2023/05/21 21:34:54;;;;;;;9.88;5.07;;;;;;;;;;8366106;28;20124;-90
2023/05/21 21:38:56;;;;;;;8.65;5.00;;;;;;;;;;8347757;28;20059;-90
2023/05/21 21:42:59;;;;;;;8.27;5.03;;;;;;;;;;8365565;28;20128;-90
2023/05/21 21:47:04;;;;;;;9.90;5.72;;;;;;;;;;8365427;28;20048;-91
2023/05/21 21:51:07;;;;;;;11.70;5.60;;;;;;;;;;8365192;28;20045;-91
2023/05/21 21:55:11;;;;;;;8.18;4.95;;;;;;;;;;8365043;28;20481;-91
2023/05/21 21:59:14;;;;;;;9.15;4.80;;;;;;;;;;8364672;28;20127;-91
2023/05/21 22:03:18;;;;;;;7.97;4.63;;;;;;;;;;8364433;28;20094;-90
2023/05/21 22:07:22;;;;;;;12.05;5.97;;;;;;;;;;8364317;28;20041;-89
2023/05/21 22:11:27;;;;;;;7.95;5.07;;;;;;;;;;8362196;28;20637;-91
2023/05/21 22:15:31;;;;;;;7.60;4.93;;;;;;;;;;8353519;28;20052;-92
2023/05/21 22:19:35;;;;;;;9.05;5.13;;;;;;;;;;8368858;28;20056;-90
2023/05/21 22:23:38;;;;;;;8.43;4.38;;;;;;;;;;8386773;28;20502;-89
2023/05/21 22:27:41;;;;;;;8.45;5.60;;;;;;;;;;8379219;28;20412;-90
2023/05/21 22:31:44;;;;;;;10.38;5.85;;;;;;;;;;8396413;28;20499;-91
2023/05/21 22:35:49;;;;;;;8.88;5.95;;;;;;;;;;8397174;28;20511;-91
2023/05/21 22:39:52;;;;;;;9.80;5.85;;;;;;;;;;8383462;28;20467;-93
2023/05/21 22:43:55;;;;;;;11.80;7.00;;;;;;;;;;8396378;28;20044;-90
2023/05/21 22:48:00;;;;;;;8.63;5.55;;;;;;;;;;8389304;28;20041;-91
2023/05/21 22:52:05;;;;;;;9.07;5.45;;;;;;;;;;8395490;28;20055;-90
2023/05/21 22:56:08;;;;;;;8.85;4.68;;;;;;;;;;8396266;28;20098;-90
2023/05/21 23:00:12;;;;;;;9.57;5.75;;;;;;;;;;8395303;28;20040;-90
2023/05/21 23:04:15;;;;;;;11.77;6.22;;;;;;;;;;8385668;28;20149;-91
2023/05/21 23:08:20;;;;;;;12.07;5.85;;;;;;;;;;8395579;28;20071;-91
2023/05/21 23:12:22;;;;;;;10.48;6.50;;;;;;;;;;8396077;28;20071;-90
2023/05/21 23:16:26;;;;;;;13.27;7.38;;;;;;;;;;8382808;28;20045;-91
2023/05/21 23:20:28;;;;;;;9.35;6.72;;;;;;;;;;8373314;28;20536;-90
2023/05/21 23:24:35;;;;;;;12.88;7.50;;;;;;;;;;8362091;28;20049;-90
2023/05/21 23:28:38;;;;;;;16.45;9.43;;;;;;;;;;8362710;28;20131;-90
2023/05/21 23:32:41;;;;;;;16.75;7.45;;;;;;;;;;8361373;28;20041;-90
2023/05/21 23:36:44;;;;;;;13.32;7.03;;;;;;;;;;8361862;28;20451;-90
2023/05/21 23:40:48;;;;;;;12.80;6.72;;;;;;;;;;8362326;28;20102;-91
2023/05/21 23:44:51;;;;;;;12.20;6.70;;;;;;;;;;8365960;28;20086;-89
2023/05/21 23:48:54;;;;;;;13.77;6.72;;;;;;;;;;8368224;28;20073;-90
2023/05/21 23:52:57;;;;;;;9.80;5.22;;;;;;;;;;8368046;28;20124;-89
2023/05/21 23:57:02;;;;;;;9.50;5.45;;;;;;;;;;8357714;28;21164;-93
